sensor_id;sensor_type;location;lat;lon;timestamp;P1;durP1;ratioP1;P2;durP2;ratioP2
18090;SDS011;9172;49.948;9.208;2023-03-31T00:00:59;3.23;;;0.97;;
18090;SDS011;9172;49.948;9.208;2023-03-31T00:03:29;3.73;;;1.00;;
18090;SDS011;9172;49.948;9.208;2023-03-31T00:05:59;9.00;;;1.53;;
18090;SDS011;9172;49.948;9.208;2023-03-31T00:08:29;4.97;;;0.97;;
18090;SDS011;9172;49.948;9.208;2023-03-31T00:11:01;2.23;;;0.93;;
18090;SDS011;9172;49.948;9.208;2023-03-31T00:13:32;4.40;;;1.27;;
18090;SDS011;9172;49.948;9.208;2023-03-31T00:16:02;4.33;;;1.10;;
18090;SDS011;9172;49.948;9.208;2023-03-31T00:18:32;5.30;;;1.20;;
18090;SDS011;9172;49.948;9.208;2023-03-31T00:21:06;4.37;;;1.40;;
18090;SDS011;9172;49.948;9.208;2023-03-31T00:23:38;3.27;;;1.30;;
18090;SDS011;9172;49.948;9.208;2023-03-31T00:26:07;4.07;;;1.10;;
18090;SDS011;9172;49.948;9.208;2023-03-31T00:28:37;5.83;;;1.23;;
18090;SDS011;9172;49.948;9.208;2023-03-31T00:31:07;6.60;;;1.07;;
18090;SDS011;9172;49.948;9.208;2023-03-31T00:33:35;6.00;;;1.63;;
18090;SDS011;9172;49.948;9.208;2023-03-31T00:36:05;4.33;;;0.80;;
18090;SDS011;9172;49.948;9.208;2023-03-31T00:38:34;6.30;;;1.93;;
18090;SDS011;9172;49.948;9.208;2023-03-31T00:41:03;3.47;;;1.43;;
18090;SDS011;9172;49.948;9.208;2023-03-31T00:43:32;5.23;;;1.07;;
18090;SDS011;9172;49.948;9.208;2023-03-31T00:46:21;6.40;;;1.40;;
18090;SDS011;9172;49.948;9.208;2023-03-31T00:48:52;5.47;;;1.40;;
18090;SDS011;9172;49.948;9.208;2023-03-31T00:51:24;6.40;;;1.20;;
18090;SDS011;9172;49.948;9.208;2023-03-31T00:53:56;5.93;;;1.43;;
18090;SDS011;9172;49.948;9.208;2023-03-31T00:56:27;3.10;;;1.07;;
18090;SDS011;9172;49.948;9.208;2023-03-31T00:59:00;6.57;;;1.77;;
18090;SDS011;9172;49.948;9.208;2023-03-31T01:01:33;5.17;;;1.70;;
18090;SDS011;9172;49.948;9.208;2023-03-31T01:04:04;6.23;;;1.53;;
18090;SDS011;9172;49.948;9.208;2023-03-31T01:06:35;4.00;;;1.17;;
18090;SDS011;9172;49.948;9.208;2023-03-31T01:09:07;7.67;;;1.33;;
18090;SDS011;9172;49.948;9.208;2023-03-31T01:11:37;6.17;;;1.30;;
18090;SDS011;9172;49.948;9.208;2023-03-31T01:14:06;12.43;;;2.27;;
18090;SDS011;9172;49.948;9.208;2023-03-31T01:16:44;6.30;;;1.03;;
18090;SDS011;9172;49.948;9.208;2023-03-31T01:19:15;5.60;;;2.23;;
18090;SDS011;9172;49.948;9.208;2023-03-31T01:21:50;3.07;;;1.10;;
18090;SDS011;9172;49.948;9.208;2023-03-31T01:24:38;2.27;;;1.30;;
18090;SDS011;9172;49.948;9.208;2023-03-31T01:27:36;5.50;;;1.17;;
18090;SDS011;9172;49.948;9.208;2023-03-31T01:30:37;5.77;;;1.57;;
18090;SDS011;9172;49.948;9.208;2023-03-31T01:33:38;5.73;;;1.23;;
18090;SDS011;9172;49.948;9.208;2023-03-31T01:36:18;3.37;;;1.10;;
18090;SDS011;9172;49.948;9.208;2023-03-31T01:42:18;6.93;;;1.37;;
18090;SDS011;9172;49.948;9.208;2023-03-31T01:44:51;8.60;;;1.20;;
18090;SDS011;9172;49.948;9.208;2023-03-31T01:47:30;7.20;;;1.30;;
18090;SDS011;9172;49.948;9.208;2023-03-31T01:50:03;3.97;;;1.37;;
18090;SDS011;9172;49.948;9.208;2023-03-31T01:52:36;4.10;;;1.10;;
18090;SDS011;9172;49.948;9.208;2023-03-31T01:55:08;3.50;;;1.17;;
18090;SDS011;9172;49.948;9.208;2023-03-31T01:57:40;5.17;;;1.53;;
18090;SDS011;9172;49.948;9.208;2023-03-31T02:00:13;8.50;;;1.97;;
18090;SDS011;9172;49.948;9.208;2023-03-31T02:02:46;6.27;;;1.60;;
18090;SDS011;9172;49.948;9.208;2023-03-31T02:05:18;6.63;;;1.27;;
18090;SDS011;9172;49.948;9.208;2023-03-31T02:07:52;7.83;;;1.40;;
18090;SDS011;9172;49.948;9.208;2023-03-31T02:10:24;12.23;;;1.83;;
18090;SDS011;9172;49.948;9.208;2023-03-31T02:12:54;9.43;;;1.50;;
18090;SDS011;9172;49.948;9.208;2023-03-31T02:15:27;5.17;;;1.53;;
18090;SDS011;9172;49.948;9.208;2023-03-31T02:17:57;11.77;;;1.53;;
18090;SDS011;9172;49.948;9.208;2023-03-31T02:20:31;5.10;;;1.33;;
18090;SDS011;9172;49.948;9.208;2023-03-31T02:23:02;5.47;;;1.97;;
18090;SDS011;9172;49.948;9.208;2023-03-31T02:25:32;9.90;;;1.30;;
18090;SDS011;9172;49.948;9.208;2023-03-31T02:28:04;4.23;;;1.70;;
18090;SDS011;9172;49.948;9.208;2023-03-31T02:30:35;10.97;;;1.70;;
18090;SDS011;9172;49.948;9.208;2023-03-31T02:33:14;5.67;;;1.20;;
18090;SDS011;9172;49.948;9.208;2023-03-31T02:35:44;8.50;;;1.27;;
18090;SDS011;9172;49.948;9.208;2023-03-31T02:38:13;5.43;;;1.70;;
18090;SDS011;9172;49.948;9.208;2023-03-31T02:40:42;5.30;;;1.60;;
18090;SDS011;9172;49.948;9.208;2023-03-31T02:43:11;5.37;;;1.37;;
18090;SDS011;9172;49.948;9.208;2023-03-31T02:45:42;9.20;;;1.80;;
18090;SDS011;9172;49.948;9.208;2023-03-31T02:48:14;7.80;;;1.40;;
18090;SDS011;9172;49.948;9.208;2023-03-31T02:51:03;7.40;;;1.43;;
18090;SDS011;9172;49.948;9.208;2023-03-31T02:53:47;5.13;;;1.40;;
18090;SDS011;9172;49.948;9.208;2023-03-31T02:56:25;8.20;;;2.30;;
18090;SDS011;9172;49.948;9.208;2023-03-31T02:59:11;6.70;;;1.70;;
18090;SDS011;9172;49.948;9.208;2023-03-31T03:01:52;6.73;;;1.37;;
18090;SDS011;9172;49.948;9.208;2023-03-31T03:04:30;5.33;;;1.70;;
18090;SDS011;9172;49.948;9.208;2023-03-31T03:07:06;8.00;;;1.50;;
18090;SDS011;9172;49.948;9.208;2023-03-31T03:09:40;5.17;;;1.50;;
18090;SDS011;9172;49.948;9.208;2023-03-31T03:12:14;5.83;;;1.50;;
18090;SDS011;9172;49.948;9.208;2023-03-31T03:14:46;6.10;;;1.60;;
18090;SDS011;9172;49.948;9.208;2023-03-31T03:17:19;8.53;;;2.03;;
18090;SDS011;9172;49.948;9.208;2023-03-31T03:19:53;7.97;;;1.37;;
18090;SDS011;9172;49.948;9.208;2023-03-31T03:22:22;6.40;;;1.43;;
18090;SDS011;9172;49.948;9.208;2023-03-31T03:24:52;6.33;;;1.50;;
18090;SDS011;9172;49.948;9.208;2023-03-31T03:27:21;11.97;;;1.70;;
18090;SDS011;9172;49.948;9.208;2023-03-31T03:29:50;12.00;;;2.13;;
18090;SDS011;9172;49.948;9.208;2023-03-31T03:32:19;8.53;;;1.63;;
18090;SDS011;9172;49.948;9.208;2023-03-31T03:34:49;6.37;;;1.67;;
18090;SDS011;9172;49.948;9.208;2023-03-31T03:37:17;9.93;;;1.80;;
18090;SDS011;9172;49.948;9.208;2023-03-31T03:39:48;6.20;;;1.67;;
18090;SDS011;9172;49.948;9.208;2023-03-31T03:42:19;14.70;;;2.80;;
18090;SDS011;9172;49.948;9.208;2023-03-31T03:44:47;9.13;;;1.60;;
18090;SDS011;9172;49.948;9.208;2023-03-31T03:47:17;5.30;;;1.73;;
18090;SDS011;9172;49.948;9.208;2023-03-31T03:49:46;12.07;;;2.07;;
18090;SDS011;9172;49.948;9.208;2023-03-31T03:52:15;7.87;;;1.90;;
18090;SDS011;9172;49.948;9.208;2023-03-31T03:54:43;5.70;;;1.90;;
18090;SDS011;9172;49.948;9.208;2023-03-31T03:57:13;7.57;;;1.50;;
18090;SDS011;9172;49.948;9.208;2023-03-31T03:59:42;9.07;;;1.97;;
18090;SDS011;9172;49.948;9.208;2023-03-31T04:02:10;8.90;;;1.60;;
18090;SDS011;9172;49.948;9.208;2023-03-31T04:04:40;7.60;;;1.50;;
18090;SDS011;9172;49.948;9.208;2023-03-31T04:07:09;8.93;;;1.73;;
18090;SDS011;9172;49.948;9.208;2023-03-31T04:09:38;3.17;;;1.20;;
18090;SDS011;9172;49.948;9.208;2023-03-31T04:12:07;5.47;;;1.50;;
18090;SDS011;9172;49.948;9.208;2023-03-31T04:14:36;5.73;;;1.70;;
18090;SDS011;9172;49.948;9.208;2023-03-31T04:17:04;10.10;;;1.70;;
18090;SDS011;9172;49.948;9.208;2023-03-31T04:19:35;6.93;;;1.77;;
18090;SDS011;9172;49.948;9.208;2023-03-31T04:22:06;11.70;;;1.73;;
18090;SDS011;9172;49.948;9.208;2023-03-31T04:24:36;7.77;;;1.40;;
18090;SDS011;9172;49.948;9.208;2023-03-31T04:27:06;4.90;;;1.37;;
18090;SDS011;9172;49.948;9.208;2023-03-31T04:29:35;7.67;;;1.77;;
18090;SDS011;9172;49.948;9.208;2023-03-31T04:32:05;10.07;;;2.07;;
18090;SDS011;9172;49.948;9.208;2023-03-31T04:34:34;6.87;;;1.67;;
18090;SDS011;9172;49.948;9.208;2023-03-31T04:37:03;5.00;;;1.40;;
18090;SDS011;9172;49.948;9.208;2023-03-31T04:39:33;5.37;;;1.37;;
18090;SDS011;9172;49.948;9.208;2023-03-31T04:42:02;11.73;;;1.90;;
18090;SDS011;9172;49.948;9.208;2023-03-31T04:44:32;9.30;;;1.60;;
18090;SDS011;9172;49.948;9.208;2023-03-31T04:47:03;8.37;;;1.63;;
18090;SDS011;9172;49.948;9.208;2023-03-31T04:49:32;5.97;;;1.40;;
18090;SDS011;9172;49.948;9.208;2023-03-31T04:52:02;14.77;;;3.43;;
18090;SDS011;9172;49.948;9.208;2023-03-31T04:54:32;5.83;;;1.43;;
18090;SDS011;9172;49.948;9.208;2023-03-31T04:57:01;4.47;;;1.60;;
18090;SDS011;9172;49.948;9.208;2023-03-31T04:59:31;5.43;;;1.50;;
18090;SDS011;9172;49.948;9.208;2023-03-31T05:02:00;9.40;;;2.20;;
18090;SDS011;9172;49.948;9.208;2023-03-31T05:04:28;7.30;;;1.83;;
18090;SDS011;9172;49.948;9.208;2023-03-31T05:06:57;8.10;;;1.77;;
18090;SDS011;9172;49.948;9.208;2023-03-31T05:09:26;6.83;;;1.47;;
18090;SDS011;9172;49.948;9.208;2023-03-31T05:11:55;3.17;;;1.10;;
18090;SDS011;9172;49.948;9.208;2023-03-31T05:14:23;7.40;;;1.20;;
18090;SDS011;9172;49.948;9.208;2023-03-31T05:16:53;5.20;;;1.60;;
18090;SDS011;9172;49.948;9.208;2023-03-31T05:19:24;10.77;;;2.07;;
18090;SDS011;9172;49.948;9.208;2023-03-31T05:21:53;5.30;;;1.40;;
18090;SDS011;9172;49.948;9.208;2023-03-31T05:24:22;8.70;;;2.03;;
18090;SDS011;9172;49.948;9.208;2023-03-31T05:26:51;4.33;;;1.33;;
18090;SDS011;9172;49.948;9.208;2023-03-31T05:29:22;4.77;;;1.50;;
18090;SDS011;9172;49.948;9.208;2023-03-31T05:31:52;6.63;;;1.77;;
18090;SDS011;9172;49.948;9.208;2023-03-31T05:34:21;4.83;;;1.37;;
18090;SDS011;9172;49.948;9.208;2023-03-31T05:36:50;5.63;;;1.10;;
18090;SDS011;9172;49.948;9.208;2023-03-31T05:39:19;8.17;;;1.60;;
18090;SDS011;9172;49.948;9.208;2023-03-31T05:41:48;6.17;;;1.60;;
18090;SDS011;9172;49.948;9.208;2023-03-31T05:44:18;7.70;;;1.53;;
18090;SDS011;9172;49.948;9.208;2023-03-31T05:46:47;7.37;;;1.67;;
18090;SDS011;9172;49.948;9.208;2023-03-31T05:49:16;6.13;;;1.43;;
18090;SDS011;9172;49.948;9.208;2023-03-31T05:51:45;13.63;;;1.50;;
18090;SDS011;9172;49.948;9.208;2023-03-31T05:54:14;9.63;;;2.13;;
18090;SDS011;9172;49.948;9.208;2023-03-31T05:56:43;3.97;;;1.30;;
18090;SDS011;9172;49.948;9.208;2023-03-31T05:59:12;6.03;;;1.83;;
18090;SDS011;9172;49.948;9.208;2023-03-31T06:01:41;4.33;;;1.67;;
18090;SDS011;9172;49.948;9.208;2023-03-31T06:04:10;7.03;;;2.70;;
18090;SDS011;9172;49.948;9.208;2023-03-31T06:06:39;5.90;;;1.80;;
18090;SDS011;9172;49.948;9.208;2023-03-31T06:09:09;5.43;;;1.60;;
18090;SDS011;9172;49.948;9.208;2023-03-31T06:11:38;4.23;;;1.60;;
18090;SDS011;9172;49.948;9.208;2023-03-31T06:14:07;3.10;;;1.43;;
18090;SDS011;9172;49.948;9.208;2023-03-31T06:16:36;5.17;;;1.60;;
18090;SDS011;9172;49.948;9.208;2023-03-31T06:19:06;7.57;;;1.70;;
18090;SDS011;9172;49.948;9.208;2023-03-31T06:21:36;8.13;;;1.97;;
18090;SDS011;9172;49.948;9.208;2023-03-31T06:24:06;12.93;;;2.00;;
18090;SDS011;9172;49.948;9.208;2023-03-31T06:29:12;10.63;;;2.00;;
18090;SDS011;9172;49.948;9.208;2023-03-31T06:31:41;8.23;;;1.60;;
18090;SDS011;9172;49.948;9.208;2023-03-31T06:34:10;7.30;;;1.37;;
18090;SDS011;9172;49.948;9.208;2023-03-31T06:36:38;6.57;;;1.90;;
18090;SDS011;9172;49.948;9.208;2023-03-31T06:39:15;6.73;;;1.77;;
18090;SDS011;9172;49.948;9.208;2023-03-31T06:41:44;7.63;;;1.77;;
18090;SDS011;9172;49.948;9.208;2023-03-31T06:44:12;6.57;;;1.70;;
18090;SDS011;9172;49.948;9.208;2023-03-31T06:46:44;4.70;;;1.73;;
18090;SDS011;9172;49.948;9.208;2023-03-31T06:51:49;5.10;;;2.13;;
18090;SDS011;9172;49.948;9.208;2023-03-31T06:54:18;7.37;;;1.90;;
18090;SDS011;9172;49.948;9.208;2023-03-31T06:56:46;4.60;;;2.73;;
18090;SDS011;9172;49.948;9.208;2023-03-31T06:59:16;9.90;;;1.83;;
18090;SDS011;9172;49.948;9.208;2023-03-31T07:01:44;5.60;;;1.90;;
18090;SDS011;9172;49.948;9.208;2023-03-31T07:04:14;6.37;;;1.73;;
18090;SDS011;9172;49.948;9.208;2023-03-31T07:06:43;7.30;;;1.60;;
18090;SDS011;9172;49.948;9.208;2023-03-31T07:09:11;7.27;;;2.17;;
18090;SDS011;9172;49.948;9.208;2023-03-31T07:11:40;5.20;;;2.00;;
18090;SDS011;9172;49.948;9.208;2023-03-31T07:14:08;8.80;;;2.40;;
18090;SDS011;9172;49.948;9.208;2023-03-31T07:16:37;5.93;;;1.77;;
18090;SDS011;9172;49.948;9.208;2023-03-31T07:19:06;8.87;;;2.37;;
18090;SDS011;9172;49.948;9.208;2023-03-31T07:21:36;7.80;;;2.10;;
18090;SDS011;9172;49.948;9.208;2023-03-31T07:24:05;7.13;;;2.10;;
18090;SDS011;9172;49.948;9.208;2023-03-31T07:26:34;6.70;;;2.30;;
18090;SDS011;9172;49.948;9.208;2023-03-31T07:29:03;8.07;;;2.90;;
18090;SDS011;9172;49.948;9.208;2023-03-31T07:31:32;5.50;;;2.30;;
18090;SDS011;9172;49.948;9.208;2023-03-31T07:34:01;8.63;;;2.30;;
18090;SDS011;9172;49.948;9.208;2023-03-31T07:36:30;11.80;;;3.20;;
18090;SDS011;9172;49.948;9.208;2023-03-31T07:39:00;6.00;;;2.27;;
18090;SDS011;9172;49.948;9.208;2023-03-31T07:41:31;3.93;;;2.10;;
18090;SDS011;9172;49.948;9.208;2023-03-31T07:44:00;7.40;;;2.40;;
18090;SDS011;9172;49.948;9.208;2023-03-31T07:46:29;10.13;;;2.63;;
18090;SDS011;9172;49.948;9.208;2023-03-31T07:48:58;5.33;;;2.10;;
18090;SDS011;9172;49.948;9.208;2023-03-31T07:51:28;5.80;;;2.50;;
18090;SDS011;9172;49.948;9.208;2023-03-31T07:53:58;8.63;;;2.47;;
18090;SDS011;9172;49.948;9.208;2023-03-31T07:56:26;10.87;;;3.17;;
18090;SDS011;9172;49.948;9.208;2023-03-31T07:58:57;4.87;;;2.33;;
18090;SDS011;9172;49.948;9.208;2023-03-31T08:01:26;9.43;;;2.80;;
18090;SDS011;9172;49.948;9.208;2023-03-31T08:03:56;6.57;;;2.30;;
18090;SDS011;9172;49.948;9.208;2023-03-31T08:06:26;7.90;;;2.33;;
18090;SDS011;9172;49.948;9.208;2023-03-31T08:08:56;4.50;;;2.60;;
18090;SDS011;9172;49.948;9.208;2023-03-31T08:11:24;9.80;;;3.00;;
18090;SDS011;9172;49.948;9.208;2023-03-31T08:13:53;7.87;;;2.37;;
18090;SDS011;9172;49.948;9.208;2023-03-31T08:16:22;4.50;;;2.50;;
18090;SDS011;9172;49.948;9.208;2023-03-31T08:18:51;9.30;;;3.00;;
18090;SDS011;9172;49.948;9.208;2023-03-31T08:21:21;3.80;;;2.20;;
18090;SDS011;9172;49.948;9.208;2023-03-31T08:23:52;5.57;;;2.37;;
18090;SDS011;9172;49.948;9.208;2023-03-31T08:26:21;6.60;;;2.63;;
18090;SDS011;9172;49.948;9.208;2023-03-31T08:28:51;9.90;;;2.87;;
18090;SDS011;9172;49.948;9.208;2023-03-31T08:31:20;8.80;;;2.43;;
18090;SDS011;9172;49.948;9.208;2023-03-31T08:33:49;9.47;;;2.80;;
18090;SDS011;9172;49.948;9.208;2023-03-31T08:36:18;9.03;;;2.53;;
18090;SDS011;9172;49.948;9.208;2023-03-31T08:38:48;4.07;;;2.47;;
18090;SDS011;9172;49.948;9.208;2023-03-31T08:41:21;4.83;;;2.30;;
18090;SDS011;9172;49.948;9.208;2023-03-31T08:44:03;3.63;;;2.10;;
18090;SDS011;9172;49.948;9.208;2023-03-31T08:46:33;3.83;;;1.80;;
18090;SDS011;9172;49.948;9.208;2023-03-31T08:49:04;6.40;;;1.87;;
18090;SDS011;9172;49.948;9.208;2023-03-31T08:51:35;5.30;;;2.00;;
18090;SDS011;9172;49.948;9.208;2023-03-31T08:54:06;3.20;;;1.90;;
18090;SDS011;9172;49.948;9.208;2023-03-31T08:56:40;6.23;;;1.70;;
18090;SDS011;9172;49.948;9.208;2023-03-31T08:59:15;3.60;;;1.67;;
18090;SDS011;9172;49.948;9.208;2023-03-31T09:01:47;5.70;;;1.90;;
18090;SDS011;9172;49.948;9.208;2023-03-31T09:04:22;1.77;;;1.37;;
18090;SDS011;9172;49.948;9.208;2023-03-31T09:06:55;1.87;;;1.37;;
18090;SDS011;9172;49.948;9.208;2023-03-31T09:09:31;3.33;;;1.50;;
18090;SDS011;9172;49.948;9.208;2023-03-31T09:12:01;6.87;;;1.67;;
18090;SDS011;9172;49.948;9.208;2023-03-31T09:14:33;2.57;;;1.70;;
18090;SDS011;9172;49.948;9.208;2023-03-31T09:17:09;1.97;;;1.00;;
18090;SDS011;9172;49.948;9.208;2023-03-31T09:19:43;4.43;;;1.50;;
18090;SDS011;9172;49.948;9.208;2023-03-31T09:22:16;3.20;;;1.20;;
18090;SDS011;9172;49.948;9.208;2023-03-31T09:24:48;3.97;;;1.20;;
18090;SDS011;9172;49.948;9.208;2023-03-31T09:27:20;2.90;;;1.00;;
18090;SDS011;9172;49.948;9.208;2023-03-31T09:29:53;3.83;;;1.30;;
18090;SDS011;9172;49.948;9.208;2023-03-31T09:32:26;3.00;;;1.10;;
18090;SDS011;9172;49.948;9.208;2023-03-31T09:34:56;3.30;;;1.10;;
18090;SDS011;9172;49.948;9.208;2023-03-31T09:37:30;2.57;;;1.10;;
18090;SDS011;9172;49.948;9.208;2023-03-31T09:39:59;3.03;;;0.97;;
18090;SDS011;9172;49.948;9.208;2023-03-31T09:42:33;2.40;;;0.87;;
18090;SDS011;9172;49.948;9.208;2023-03-31T09:45:02;1.40;;;0.93;;
18090;SDS011;9172;49.948;9.208;2023-03-31T09:47:34;1.90;;;1.00;;
18090;SDS011;9172;49.948;9.208;2023-03-31T09:50:05;1.33;;;0.80;;
18090;SDS011;9172;49.948;9.208;2023-03-31T09:52:37;2.83;;;0.90;;
18090;SDS011;9172;49.948;9.208;2023-03-31T09:55:15;2.77;;;1.40;;
18090;SDS011;9172;49.948;9.208;2023-03-31T09:57:47;2.07;;;1.20;;
18090;SDS011;9172;49.948;9.208;2023-03-31T10:00:19;4.33;;;1.40;;
18090;SDS011;9172;49.948;9.208;2023-03-31T10:02:49;2.83;;;1.40;;
18090;SDS011;9172;49.948;9.208;2023-03-31T10:05:21;3.13;;;1.20;;
18090;SDS011;9172;49.948;9.208;2023-03-31T10:08:13;3.40;;;1.63;;
18090;SDS011;9172;49.948;9.208;2023-03-31T10:10:48;3.10;;;1.30;;
18090;SDS011;9172;49.948;9.208;2023-03-31T10:13:21;3.40;;;1.57;;
18090;SDS011;9172;49.948;9.208;2023-03-31T10:15:52;3.37;;;1.50;;
18090;SDS011;9172;49.948;9.208;2023-03-31T10:18:30;6.80;;;1.80;;
18090;SDS011;9172;49.948;9.208;2023-03-31T10:20:59;9.43;;;2.03;;
18090;SDS011;9172;49.948;9.208;2023-03-31T10:23:31;4.23;;;1.70;;
18090;SDS011;9172;49.948;9.208;2023-03-31T10:26:01;4.83;;;1.67;;
18090;SDS011;9172;49.948;9.208;2023-03-31T10:28:32;7.43;;;1.77;;
18090;SDS011;9172;49.948;9.208;2023-03-31T10:31:04;4.30;;;1.50;;
18090;SDS011;9172;49.948;9.208;2023-03-31T10:33:42;5.63;;;2.00;;
18090;SDS011;9172;49.948;9.208;2023-03-31T10:36:07;8.17;;;2.20;;
18090;SDS011;9172;49.948;9.208;2023-03-31T10:38:41;4.63;;;1.47;;
18090;SDS011;9172;49.948;9.208;2023-03-31T10:41:13;2.33;;;1.10;;
18090;SDS011;9172;49.948;9.208;2023-03-31T10:43:47;6.80;;;1.30;;
18090;SDS011;9172;49.948;9.208;2023-03-31T10:46:17;4.10;;;1.60;;
18090;SDS011;9172;49.948;9.208;2023-03-31T10:48:47;2.07;;;0.90;;
18090;SDS011;9172;49.948;9.208;2023-03-31T10:51:18;3.10;;;1.27;;
18090;SDS011;9172;49.948;9.208;2023-03-31T10:53:49;2.53;;;1.00;;
18090;SDS011;9172;49.948;9.208;2023-03-31T10:56:23;3.17;;;1.17;;
18090;SDS011;9172;49.948;9.208;2023-03-31T10:59:03;2.73;;;0.80;;
18090;SDS011;9172;49.948;9.208;2023-03-31T11:01:42;3.13;;;0.73;;
18090;SDS011;9172;49.948;9.208;2023-03-31T11:04:20;2.20;;;0.80;;
18090;SDS011;9172;49.948;9.208;2023-03-31T11:07:10;3.73;;;1.13;;
18090;SDS011;9172;49.948;9.208;2023-03-31T11:09:44;5.33;;;1.20;;
18090;SDS011;9172;49.948;9.208;2023-03-31T11:12:25;4.60;;;1.10;;
18090;SDS011;9172;49.948;9.208;2023-03-31T11:14:59;5.87;;;1.10;;
18090;SDS011;9172;49.948;9.208;2023-03-31T11:17:48;6.77;;;1.37;;
18090;SDS011;9172;49.948;9.208;2023-03-31T11:20:12;2.77;;;1.37;;
18090;SDS011;9172;49.948;9.208;2023-03-31T11:22:45;3.03;;;1.10;;
18090;SDS011;9172;49.948;9.208;2023-03-31T11:25:22;4.33;;;1.30;;
18090;SDS011;9172;49.948;9.208;2023-03-31T11:28:02;5.77;;;1.10;;
18090;SDS011;9172;49.948;9.208;2023-03-31T11:30:41;3.57;;;1.33;;
18090;SDS011;9172;49.948;9.208;2023-03-31T11:33:30;5.90;;;1.33;;
18090;SDS011;9172;49.948;9.208;2023-03-31T11:36:13;6.70;;;1.87;;
18090;SDS011;9172;49.948;9.208;2023-03-31T11:38:56;3.37;;;1.30;;
18090;SDS011;9172;49.948;9.208;2023-03-31T11:41:31;7.97;;;1.43;;
18090;SDS011;9172;49.948;9.208;2023-03-31T11:44:03;5.60;;;1.80;;
18090;SDS011;9172;49.948;9.208;2023-03-31T11:46:36;9.63;;;1.40;;
18090;SDS011;9172;49.948;9.208;2023-03-31T11:49:10;6.07;;;1.67;;
18090;SDS011;9172;49.948;9.208;2023-03-31T11:51:42;6.00;;;1.63;;
18090;SDS011;9172;49.948;9.208;2023-03-31T11:54:15;3.90;;;1.00;;
18090;SDS011;9172;49.948;9.208;2023-03-31T11:56:47;6.77;;;1.80;;
18090;SDS011;9172;49.948;9.208;2023-03-31T11:59:16;5.37;;;1.47;;
18090;SDS011;9172;49.948;9.208;2023-03-31T12:01:47;5.57;;;1.23;;
18090;SDS011;9172;49.948;9.208;2023-03-31T12:04:22;5.57;;;1.47;;
18090;SDS011;9172;49.948;9.208;2023-03-31T12:06:57;11.47;;;2.40;;
18090;SDS011;9172;49.948;9.208;2023-03-31T12:09:31;13.50;;;2.07;;
18090;SDS011;9172;49.948;9.208;2023-03-31T12:12:02;8.63;;;1.63;;
18090;SDS011;9172;49.948;9.208;2023-03-31T12:14:34;8.80;;;1.73;;
18090;SDS011;9172;49.948;9.208;2023-03-31T12:17:07;7.20;;;1.90;;
18090;SDS011;9172;49.948;9.208;2023-03-31T12:19:39;8.43;;;2.03;;
18090;SDS011;9172;49.948;9.208;2023-03-31T12:22:13;5.53;;;1.47;;
18090;SDS011;9172;49.948;9.208;2023-03-31T12:24:45;4.10;;;1.67;;
18090;SDS011;9172;49.948;9.208;2023-03-31T12:27:15;13.63;;;2.47;;
18090;SDS011;9172;49.948;9.208;2023-03-31T12:29:49;6.27;;;1.47;;
18090;SDS011;9172;49.948;9.208;2023-03-31T12:32:21;3.03;;;1.30;;
18090;SDS011;9172;49.948;9.208;2023-03-31T12:34:54;6.80;;;1.50;;
18090;SDS011;9172;49.948;9.208;2023-03-31T12:37:33;6.37;;;1.20;;
18090;SDS011;9172;49.948;9.208;2023-03-31T12:40:21;4.50;;;1.47;;
18090;SDS011;9172;49.948;9.208;2023-03-31T12:46:02;4.07;;;1.47;;
18090;SDS011;9172;49.948;9.208;2023-03-31T12:48:43;7.90;;;1.27;;
18090;SDS011;9172;49.948;9.208;2023-03-31T12:51:27;11.10;;;1.57;;
18090;SDS011;9172;49.948;9.208;2023-03-31T12:54:16;8.73;;;1.40;;
18090;SDS011;9172;49.948;9.208;2023-03-31T12:57:02;7.83;;;2.07;;
18090;SDS011;9172;49.948;9.208;2023-03-31T12:59:42;10.07;;;1.40;;
18090;SDS011;9172;49.948;9.208;2023-03-31T13:02:20;7.13;;;1.97;;
18090;SDS011;9172;49.948;9.208;2023-03-31T13:04:51;6.63;;;1.60;;
18090;SDS011;9172;49.948;9.208;2023-03-31T13:07:39;5.60;;;1.70;;
18090;SDS011;9172;49.948;9.208;2023-03-31T13:10:27;4.30;;;1.10;;
18090;SDS011;9172;49.948;9.208;2023-03-31T13:12:59;8.90;;;1.50;;
18090;SDS011;9172;49.948;9.208;2023-03-31T13:15:30;8.07;;;1.70;;
18090;SDS011;9172;49.948;9.208;2023-03-31T13:18:01;5.63;;;2.10;;
18090;SDS011;9172;49.948;9.208;2023-03-31T13:20:35;4.17;;;1.43;;
18090;SDS011;9172;49.948;9.208;2023-03-31T13:23:15;7.10;;;1.70;;
18090;SDS011;9172;49.948;9.208;2023-03-31T13:25:47;3.67;;;1.30;;
18090;SDS011;9172;49.948;9.208;2023-03-31T13:28:27;9.37;;;1.80;;
18090;SDS011;9172;49.948;9.208;2023-03-31T13:31:02;5.40;;;1.20;;
18090;SDS011;9172;49.948;9.208;2023-03-31T13:33:36;10.10;;;1.20;;
18090;SDS011;9172;49.948;9.208;2023-03-31T13:36:21;8.60;;;1.57;;
18090;SDS011;9172;49.948;9.208;2023-03-31T13:39:15;3.80;;;1.40;;
18090;SDS011;9172;49.948;9.208;2023-03-31T13:41:52;4.60;;;1.27;;
18090;SDS011;9172;49.948;9.208;2023-03-31T13:47:30;2.30;;;1.10;;
18090;SDS011;9172;49.948;9.208;2023-03-31T13:50:13;5.80;;;1.20;;
18090;SDS011;9172;49.948;9.208;2023-03-31T13:53:03;6.57;;;1.00;;
18090;SDS011;9172;49.948;9.208;2023-03-31T13:56:03;2.67;;;1.00;;
18090;SDS011;9172;49.948;9.208;2023-03-31T13:59:04;3.90;;;1.20;;
18090;SDS011;9172;49.948;9.208;2023-03-31T14:01:55;7.07;;;1.40;;
18090;SDS011;9172;49.948;9.208;2023-03-31T14:07:53;3.27;;;1.10;;
18090;SDS011;9172;49.948;9.208;2023-03-31T14:10:26;4.13;;;1.00;;
18090;SDS011;9172;49.948;9.208;2023-03-31T14:13:06;2.57;;;0.63;;
18090;SDS011;9172;49.948;9.208;2023-03-31T14:15:37;5.67;;;0.90;;
18090;SDS011;9172;49.948;9.208;2023-03-31T14:18:10;2.30;;;0.80;;
18090;SDS011;9172;49.948;9.208;2023-03-31T14:20:44;1.97;;;0.60;;
18090;SDS011;9172;49.948;9.208;2023-03-31T14:23:20;2.37;;;0.83;;
18090;SDS011;9172;49.948;9.208;2023-03-31T14:25:56;3.73;;;0.60;;
18090;SDS011;9172;49.948;9.208;2023-03-31T14:28:49;1.20;;;0.60;;
18090;SDS011;9172;49.948;9.208;2023-03-31T14:31:29;3.03;;;0.70;;
18090;SDS011;9172;49.948;9.208;2023-03-31T14:34:16;2.10;;;0.67;;
18090;SDS011;9172;49.948;9.208;2023-03-31T14:39:28;6.37;;;1.00;;
18090;SDS011;9172;49.948;9.208;2023-03-31T14:42:01;2.07;;;0.70;;
18090;SDS011;9172;49.948;9.208;2023-03-31T14:44:38;2.60;;;0.73;;
18090;SDS011;9172;49.948;9.208;2023-03-31T14:49:57;1.40;;;0.83;;
18090;SDS011;9172;49.948;9.208;2023-03-31T14:52:29;1.37;;;0.63;;
18090;SDS011;9172;49.948;9.208;2023-03-31T14:55:12;2.33;;;1.00;;
18090;SDS011;9172;49.948;9.208;2023-03-31T15:00:23;1.23;;;0.70;;
18090;SDS011;9172;49.948;9.208;2023-03-31T15:02:53;1.77;;;0.70;;
18090;SDS011;9172;49.948;9.208;2023-03-31T15:05:25;5.03;;;0.90;;
18090;SDS011;9172;49.948;9.208;2023-03-31T15:07:56;1.90;;;0.80;;
18090;SDS011;9172;49.948;9.208;2023-03-31T15:10:27;3.10;;;0.97;;
18090;SDS011;9172;49.948;9.208;2023-03-31T15:12:58;3.10;;;0.70;;
18090;SDS011;9172;49.948;9.208;2023-03-31T15:15:27;3.57;;;0.87;;
18090;SDS011;9172;49.948;9.208;2023-03-31T15:17:58;2.20;;;1.07;;
18090;SDS011;9172;49.948;9.208;2023-03-31T15:20:29;4.93;;;0.87;;
18090;SDS011;9172;49.948;9.208;2023-03-31T15:23:01;6.70;;;1.30;;
18090;SDS011;9172;49.948;9.208;2023-03-31T15:25:33;4.80;;;0.90;;
18090;SDS011;9172;49.948;9.208;2023-03-31T15:28:05;3.70;;;1.47;;
18090;SDS011;9172;49.948;9.208;2023-03-31T15:30:35;3.63;;;0.97;;
18090;SDS011;9172;49.948;9.208;2023-03-31T15:33:05;4.13;;;0.90;;
18090;SDS011;9172;49.948;9.208;2023-03-31T15:35:37;4.53;;;1.27;;
18090;SDS011;9172;49.948;9.208;2023-03-31T15:38:08;3.63;;;0.90;;
18090;SDS011;9172;49.948;9.208;2023-03-31T15:40:42;4.40;;;1.20;;
18090;SDS011;9172;49.948;9.208;2023-03-31T15:43:14;6.63;;;1.60;;
18090;SDS011;9172;49.948;9.208;2023-03-31T15:45:46;3.20;;;1.03;;
18090;SDS011;9172;49.948;9.208;2023-03-31T15:48:18;3.17;;;1.07;;
18090;SDS011;9172;49.948;9.208;2023-03-31T15:50:49;2.23;;;0.80;;
18090;SDS011;9172;49.948;9.208;2023-03-31T15:53:21;4.77;;;0.80;;
18090;SDS011;9172;49.948;9.208;2023-03-31T15:55:54;2.40;;;0.90;;
18090;SDS011;9172;49.948;9.208;2023-03-31T15:58:45;10.37;;;1.23;;
18090;SDS011;9172;49.948;9.208;2023-03-31T16:01:15;4.60;;;0.77;;